Terminal Aerodrome Forecast
Issued by NWS

Home | Current Version | Previous Version | Text Only | Print | Product List | Glossary On
Versions: 1 2 3 4 5 6 7 8 9 10 11 12 13 14
824
FTUS44 KBMX 221720
TAFTOI
TAF
KTOI 221720Z 2218/2318 14012G18KT P6SM SCT025 BKN050
     FM222200 13012G20KT 5SM -RA OVC035
     FM230300 13008KT P6SM VCSH OVC035
     FM230900 15008KT 3SM TSRA OVC008CB
     FM231200 23008KT 5SM -RA VCTS OVC008CB
     FM231500 27008KT P6SM VCSH OVC010=

USA.gov is the U.S. government's official web portal to all federal, state and local government web resources and services.